Time;durP1;ratioP1;P1;durP2;ratioP2;P2;SDS_P1;SDS_P2;PMS_P1;PMS_P2;Temp;Humidity;BMP_temperature;BMP_pressure;BME280_temperature;BME280_humidity;BME280_pressure;Samples;Min_cycle;Max_cycle;Signal;HPM_P1;HPM_P2
2022/10/31 00:01:53;;;;;;;;;;;12.50;99.90;;;;;;6308708;22;19919;-62
2022/10/31 00:04:19;;;;;;;;;;;12.40;99.90;;;;;;6308466;22;19964;-62
2022/10/31 00:06:48;;;;;;;;;;;12.40;99.90;;;;;;6308374;22;20327;-62
2022/10/31 00:09:14;;;;;;;;;;;12.30;99.90;;;;;;6308878;22;19973;-63
2022/10/31 00:11:40;;;;;;;;;;;12.30;99.90;;;;;;6281649;22;20339;-62
2022/10/31 00:14:09;;;;;;;;;;;12.30;99.90;;;;;;6308665;22;19922;-62
2022/10/31 00:16:40;;;;;;;;;;;12.20;99.90;;;;;;6308411;22;19955;-63
2022/10/31 00:19:10;;;;;;;;;;;12.20;99.90;;;;;;6308475;22;19922;-62
2022/10/31 00:21:37;;;;;;;;;;;12.20;99.90;;;;;;6308787;22;19986;-63
2022/10/31 00:24:02;;;;;;;;;;;12.20;99.90;;;;;;6307110;22;19915;-62
2022/10/31 00:26:34;;;;;;;;;;;12.10;99.90;;;;;;6280964;22;19919;-62
2022/10/31 00:29:00;;;;;;;;;;;12.00;99.90;;;;;;6307473;22;19922;-62
2022/10/31 00:31:29;;;;;;;;;;;12.10;99.90;;;;;;6280993;22;19985;-62
2022/10/31 00:33:55;;;;;;;;;;;12.00;99.90;;;;;;6308356;22;19983;-62
2022/10/31 00:36:20;;;;;;;;;;;12.00;99.90;;;;;;6303140;22;20354;-62
2022/10/31 00:38:51;;;;;;;;;;;12.00;99.90;;;;;;6308601;22;19915;-62
2022/10/31 00:41:17;;;;;;;;;;;12.10;99.90;;;;;;6308458;22;19915;-62
2022/10/31 00:43:43;;;;;;;;;;;12.10;99.90;;;;;;6308540;22;19915;-62
2022/10/31 00:46:09;;;;;;;;;;;12.10;99.90;;;;;;6308451;22;19919;-62
2022/10/31 00:48:35;;;;;;;;;;;12.10;99.90;;;;;;6308553;22;19915;-62
2022/10/31 00:51:04;;;;;;;;;;;12.00;99.90;;;;;;6308438;22;19915;-62
2022/10/31 00:53:33;;;;;;;;;;;12.00;99.90;;;;;;6306290;22;19915;-62
2022/10/31 00:55:59;;;;;;;;;;;11.90;99.90;;;;;;6279852;22;20019;-62
2022/10/31 00:58:28;;;;;;;;;;;11.90;99.90;;;;;;6308219;22;20236;-62
2022/10/31 01:00:57;;;;;;;;;;;11.80;99.90;;;;;;6308491;22;19914;-62
2022/10/31 01:03:27;;;;;;;;;;;11.90;99.90;;;;;;6308369;22;19915;-62
2022/10/31 01:05:59;;;;;;;;;;;11.80;99.90;;;;;;6308354;22;19919;-62
2022/10/31 01:08:25;;;;;;;;;;;11.80;99.90;;;;;;6307839;22;19915;-63
2022/10/31 01:11:01;;;;;;;;;;;11.80;99.90;;;;;;6308321;22;19963;-64
2022/10/31 01:13:30;;;;;;;;;;;11.70;99.90;;;;;;6308709;22;19915;-64
2022/10/31 01:15:56;;;;;;;;;;;11.70;99.90;;;;;;6307338;22;19922;-64
2022/10/31 01:18:26;;;;;;;;;;;11.60;99.90;;;;;;6307981;22;19918;-64
2022/10/31 01:21:11;;;;;;;;;;;11.70;99.90;;;;;;6308144;22;19922;-64
2022/10/31 01:23:36;;;;;;;;;;;11.60;99.90;;;;;;6308314;22;19950;-64
2022/10/31 01:26:11;;;;;;;;;;;11.60;99.90;;;;;;6306595;22;19969;-64
2022/10/31 01:28:47;;;;;;;;;;;11.60;99.90;;;;;;6308226;22;19922;-65
2022/10/31 01:31:14;;;;;;;;;;;11.50;99.90;;;;;;6307239;22;19915;-65
2022/10/31 01:33:41;;;;;;;;;;;11.60;99.90;;;;;;6308231;22;19941;-65
2022/10/31 01:36:17;;;;;;;;;;;11.50;99.90;;;;;;6308219;22;19915;-65
2022/10/31 01:38:43;;;;;;;;;;;11.60;99.90;;;;;;6280428;22;19922;-65
2022/10/31 01:41:10;;;;;;;;;;;11.50;99.90;;;;;;6307743;22;19915;-65
2022/10/31 01:43:54;;;;;;;;;;;11.60;99.90;;;;;;6306158;22;19914;-65
2022/10/31 01:46:40;;;;;;;;;;;11.60;99.90;;;;;;6308818;22;20323;-65
2022/10/31 01:49:09;;;;;;;;;;;11.60;99.90;;;;;;6309097;22;19986;-65
2022/10/31 01:51:38;;;;;;;;;;;11.60;99.90;;;;;;6310219;22;19921;-65
2022/10/31 01:54:15;;;;;;;;;;;11.60;99.90;;;;;;6308591;22;20224;-65
2022/10/31 01:56:43;;;;;;;;;;;11.50;99.90;;;;;;6310228;22;19918;-65
2022/10/31 01:59:11;;;;;;;;;;;11.50;99.90;;;;;;6310169;22;19918;-65
2022/10/31 02:01:37;;;;;;;;;;;11.50;99.90;;;;;;6304517;22;19921;-66
2022/10/31 02:04:04;;;;;;;;;;;11.50;99.90;;;;;;6310082;22;20216;-65
2022/10/31 02:06:38;;;;;;;;;;;11.50;99.90;;;;;;6309705;22;19984;-64
2022/10/31 02:09:05;;;;;;;;;;;11.50;99.90;;;;;;6310012;22;19915;-65
2022/10/31 02:11:32;;;;;;;;;;;11.50;99.90;;;;;;6309988;22;19926;-65
2022/10/31 02:13:59;;;;;;;;;;;11.50;99.90;;;;;;6310038;22;19915;-65
2022/10/31 02:16:33;;;;;;;;;;;11.40;99.90;;;;;;6309804;22;19929;-65
2022/10/31 02:19:00;;;;;;;;;;;11.60;99.90;;;;;;6309716;22;20238;-65
2022/10/31 02:21:47;;;;;;;;;;;11.30;99.90;;;;;;6307753;22;19915;-65
2022/10/31 02:24:34;;;;;;;;;;;11.40;99.90;;;;;;6282274;22;20323;-65
2022/10/31 02:27:28;;;;;;;;;;;11.30;99.90;;;;;;6309491;22;19925;-65
2022/10/31 02:30:23;;;;;;;;;;;11.30;99.90;;;;;;6309899;22;19921;-65
2022/10/31 02:32:53;;;;;;;;;;;11.30;99.90;;;;;;6278271;22;19921;-64
2022/10/31 02:35:21;;;;;;;;;;;11.20;99.90;;;;;;6309801;22;19945;-64
2022/10/31 02:38:00;;;;;;;;;;;11.10;99.90;;;;;;6303113;22;19997;-64
2022/10/31 02:40:43;;;;;;;;;;;11.10;99.90;;;;;;6307714;22;19914;-65
2022/10/31 02:43:28;;;;;;;;;;;11.10;99.90;;;;;;6309817;22;19915;-65
2022/10/31 02:45:54;;;;;;;;;;;11.00;99.90;;;;;;6308461;22;19926;-65
2022/10/31 02:48:23;;;;;;;;;;;11.00;99.90;;;;;;6309632;22;19915;-65
2022/10/31 02:50:56;;;;;;;;;;;10.90;99.90;;;;;;6309600;22;19915;-65
2022/10/31 02:53:22;;;;;;;;;;;11.00;99.90;;;;;;6309134;22;19915;-64
2022/10/31 02:55:54;;;;;;;;;;;10.90;99.90;;;;;;6309137;22;19922;-64
2022/10/31 02:58:22;;;;;;;;;;;10.80;99.90;;;;;;6308713;22;20328;-64
2022/10/31 03:01:10;;;;;;;;;;;10.70;99.90;;;;;;6309403;22;19919;-64
2022/10/31 03:03:52;;;;;;;;;;;10.60;99.90;;;;;;6309148;22;19915;-64
2022/10/31 03:06:18;;;;;;;;;;;10.60;99.90;;;;;;6309431;22;19919;-64
2022/10/31 03:08:53;;;;;;;;;;;10.60;99.90;;;;;;6309169;22;19968;-64
2022/10/31 03:11:21;;;;;;;;;;;10.50;99.90;;;;;;6307765;22;19986;-64
2022/10/31 03:13:54;;;;;;;;;;;10.50;99.90;;;;;;6309450;22;19922;-64
2022/10/31 03:16:29;;;;;;;;;;;10.50;99.90;;;;;;6309108;22;19925;-65
2022/10/31 03:19:03;;;;;;;;;;;10.50;99.90;;;;;;6309058;22;19922;-64
2022/10/31 03:21:34;;;;;;;;;;;14.20;99.90;;;;;;6309117;22;20349;-64
2022/10/31 03:24:18;;;;;;;;;;;10.40;99.90;;;;;;6309063;22;20033;-64
2022/10/31 03:26:47;;;;;;;;;;;10.30;99.90;;;;;;6308808;22;19919;-64
2022/10/31 03:29:15;;;;;;;;;;;10.30;99.90;;;;;;6309212;22;19915;-64
2022/10/31 03:31:47;;;;;;;;;;;10.20;99.90;;;;;;6309320;22;20220;-64
2022/10/31 03:34:14;;;;;;;;;;;10.20;99.90;;;;;;6308338;22;19915;-64
2022/10/31 03:36:40;;;;;;;;;;;10.10;99.90;;;;;;6309088;22;19915;-64
2022/10/31 03:39:11;;;;;;;;;;;10.10;99.90;;;;;;6308791;22;20350;-64
2022/10/31 03:41:40;;;;;;;;;;;10.00;99.90;;;;;;6309178;22;19915;-64
2022/10/31 03:44:11;;;;;;;;;;;10.00;99.90;;;;;;6309138;22;19982;-64
2022/10/31 03:46:38;;;;;;;;;;;9.90;99.90;;;;;;6308958;22;19919;-64
2022/10/31 03:49:04;;;;;;;;;;;9.90;99.90;;;;;;6308318;22;19914;-64
2022/10/31 03:51:32;;;;;;;;;;;9.80;99.90;;;;;;6308594;22;19960;-64
2022/10/31 03:54:20;;;;;;;;;;;9.80;99.90;;;;;;6309051;22;19921;-64
2022/10/31 03:56:49;;;;;;;;;;;9.70;99.90;;;;;;6308999;22;20307;-64
2022/10/31 03:59:20;;;;;;;;;;;9.70;99.90;;;;;;6308483;22;20328;-64
2022/10/31 04:01:49;;;;;;;;;;;9.60;99.90;;;;;;6308351;22;19914;-64
2022/10/31 04:04:16;;;;;;;;;;;9.60;99.90;;;;;;6280934;22;19998;-64
2022/10/31 04:06:52;;;;;;;;;;;9.50;99.90;;;;;;6308227;22;20328;-64
2022/10/31 04:09:18;;;;;;;;;;;9.50;99.90;;;;;;6308042;22;19938;-64
2022/10/31 04:11:46;;;;;;;;;;;9.50;99.90;;;;;;6308581;22;19921;-64
2022/10/31 04:14:12;;;;;;;;;;;9.50;99.90;;;;;;6308501;22;19915;-64
2022/10/31 04:16:42;;;;;;;;;;;9.40;99.90;;;;;;6280567;22;19941;-64
2022/10/31 04:19:08;;;;;;;;;;;9.40;99.90;;;;;;6306562;22;19984;-64
2022/10/31 04:21:35;;;;;;;;;;;9.40;99.90;;;;;;6307162;22;19921;-64
2022/10/31 04:24:01;;;;;;;;;;;9.50;99.90;;;;;;6308767;22;19919;-64
2022/10/31 04:26:37;;;;;;;;;;;9.40;99.90;;;;;;6306791;22;19965;-65
2022/10/31 04:29:06;;;;;;;;;;;9.40;99.90;;;;;;6308658;22;19950;-64
2022/10/31 04:31:35;;;;;;;;;;;9.40;99.90;;;;;;6308194;22;20343;-64
2022/10/31 04:34:00;;;;;;;;;;;9.30;99.90;;;;;;6281152;22;19919;-64
2022/10/31 04:36:26;;;;;;;;;;;9.30;99.90;;;;;;6280854;22;19956;-64
2022/10/31 04:38:55;;;;;;;;;;;9.10;99.90;;;;;;6280809;22;20266;-64
2022/10/31 04:41:20;;;;;;;;;;;9.10;99.90;;;;;;6308529;22;19918;-64
2022/10/31 04:43:50;;;;;;;;;;;9.10;99.90;;;;;;6308804;22;19915;-64
2022/10/31 04:46:15;;;;;;;;;;;9.00;99.90;;;;;;6308523;22;20386;-64
2022/10/31 04:48:41;;;;;;;;;;;9.10;99.90;;;;;;6308545;22;19957;-64
2022/10/31 04:51:10;;;;;;;;;;;9.10;99.90;;;;;;6308504;22;20036;-64
2022/10/31 04:53:37;;;;;;;;;;;9.10;99.90;;;;;;6308025;22;19915;-64
2022/10/31 04:56:04;;;;;;;;;;;9.00;99.90;;;;;;6308457;22;19915;-64
2022/10/31 04:58:30;;;;;;;;;;;9.00;99.90;;;;;;6280217;22;20308;-64
2022/10/31 05:00:59;;;;;;;;;;;9.10;99.90;;;;;;6308410;22;20247;-64
2022/10/31 05:03:25;;;;;;;;;;;9.00;99.90;;;;;;6308408;22;19915;-65
2022/10/31 05:05:50;;;;;;;;;;;9.00;99.90;;;;;;6308113;22;19922;-65
2022/10/31 05:08:19;;;;;;;;;;;8.90;99.90;;;;;;6308304;22;20243;-65
2022/10/31 05:10:45;;;;;;;;;;;8.90;99.90;;;;;;6308322;22;19914;-65
2022/10/31 05:13:10;;;;;;;;;;;8.90;99.90;;;;;;6308280;22;20377;-65
2022/10/31 05:15:36;;;;;;;;;;;8.70;99.90;;;;;;6307924;22;19921;-65
2022/10/31 05:18:01;;;;;;;;;;;8.80;99.90;;;;;;6307431;22;19923;-65
2022/10/31 05:20:28;;;;;;;;;;;8.60;99.90;;;;;;6307860;22;19921;-65
2022/10/31 05:22:58;;;;;;;;;;;8.70;99.90;;;;;;6307871;22;19915;-65
2022/10/31 05:25:24;;;;;;;;;;;8.80;99.90;;;;;;6308327;22;19919;-65
2022/10/31 05:27:54;;;;;;;;;;;8.70;99.90;;;;;;6307576;22;20343;-65
2022/10/31 05:30:27;;;;;;;;;;;8.70;99.90;;;;;;6228186;22;20267;-65
2022/10/31 05:32:52;;;;;;;;;;;8.70;99.90;;;;;;6305773;22;19953;-65
2022/10/31 05:35:23;;;;;;;;;;;8.70;99.90;;;;;;6305833;22;19919;-65
2022/10/31 05:37:49;;;;;;;;;;;8.80;99.90;;;;;;6305932;22;19939;-65
2022/10/31 05:40:17;;;;;;;;;;;8.70;99.90;;;;;;6305617;22;19922;-65
2022/10/31 05:42:43;;;;;;;;;;;8.70;99.90;;;;;;6305914;22;19915;-65
2022/10/31 05:45:16;;;;;;;;;;;8.80;99.90;;;;;;6305871;22;19915;-65
2022/10/31 05:47:42;;;;;;;;;;;8.70;99.90;;;;;;6307743;22;19919;-65
2022/10/31 05:50:09;;;;;;;;;;;8.70;99.90;;;;;;6308241;22;20221;-65
2022/10/31 05:52:35;;;;;;;;;;;8.70;99.90;;;;;;6308175;22;19941;-65
2022/10/31 05:55:12;;;;;;;;;;;8.70;99.90;;;;;;6307694;22;19939;-65
2022/10/31 05:57:44;;;;;;;;;;;8.80;99.90;;;;;;6306763;22;19915;-65
2022/10/31 06:00:10;;;;;;;;;;;8.70;99.90;;;;;;6308124;22;20033;-65
2022/10/31 06:02:36;;;;;;;;;;;8.70;99.90;;;;;;6308491;22;19919;-65
2022/10/31 06:05:02;;;;;;;;;;;8.70;99.90;;;;;;6308119;22;20278;-65
2022/10/31 06:07:31;;;;;;;;;;;8.80;99.90;;;;;;6307997;22;19950;-65
2022/10/31 06:10:03;;;;;;;;;;;8.70;99.90;;;;;;6307995;22;19915;-65
2022/10/31 06:12:37;;;;;;;;;;;8.80;99.90;;;;;;6308012;22;19941;-65
2022/10/31 06:15:06;;;;;;;;;;;8.80;99.90;;;;;;6302145;22;19946;-64
2022/10/31 06:17:33;;;;;;;;;;;8.80;99.90;;;;;;6306270;22;19942;-65
2022/10/31 06:20:12;;;;;;;;;;;8.70;99.90;;;;;;6306575;22;20311;-65
2022/10/31 06:22:39;;;;;;;;;;;8.70;99.90;;;;;;6300944;22;19914;-65
2022/10/31 06:25:05;;;;;;;;;;;8.70;99.90;;;;;;6306039;22;20332;-65
2022/10/31 06:27:30;;;;;;;;;;;8.60;99.90;;;;;;6305835;22;19923;-65
2022/10/31 06:29:58;;;;;;;;;;;8.60;99.90;;;;;;6305863;22;19915;-65
2022/10/31 06:32:24;;;;;;;;;;;8.70;99.90;;;;;;6304596;22;19969;-65
2022/10/31 06:34:52;;;;;;;;;;;8.70;99.90;;;;;;6305907;22;19915;-65
2022/10/31 06:37:17;;;;;;;;;;;8.70;99.90;;;;;;6306629;22;19938;-65
2022/10/31 06:39:43;;;;;;;;;;;8.70;99.90;;;;;;6304967;22;19966;-65
2022/10/31 06:42:12;;;;;;;;;;;8.60;99.90;;;;;;6306141;22;19914;-65
2022/10/31 06:44:38;;;;;;;;;;;8.70;99.90;;;;;;6305246;22;19915;-65
2022/10/31 06:47:07;;;;;;;;;;;8.70;99.90;;;;;;6305929;22;19969;-65
2022/10/31 06:49:32;;;;;;;;;;;8.60;99.90;;;;;;6308180;22;19914;-65
2022/10/31 06:51:58;;;;;;;;;;;8.70;99.90;;;;;;6281306;22;19985;-65
2022/10/31 06:54:23;;;;;;;;;;;8.70;99.90;;;;;;6308581;22;19994;-66
2022/10/31 06:56:53;;;;;;;;;;;8.60;99.90;;;;;;6307499;22;19915;-65
2022/10/31 06:59:24;;;;;;;;;;;8.60;99.90;;;;;;6308229;22;19960;-65
2022/10/31 07:01:49;;;;;;;;;;;8.70;99.90;;;;;;6309123;22;19915;-64
2022/10/31 07:04:16;;;;;;;;;;;8.70;99.90;;;;;;6308875;22;19923;-64
2022/10/31 07:06:42;;;;;;;;;;;8.70;99.90;;;;;;6309253;22;20285;-64
2022/10/31 07:09:08;;;;;;;;;;;8.70;99.90;;;;;;6309665;22;19915;-64
2022/10/31 07:11:34;;;;;;;;;;;8.70;99.90;;;;;;6309538;22;19915;-64
2022/10/31 07:13:59;;;;;;;;;;;8.70;99.90;;;;;;6309457;22;19915;-65
2022/10/31 07:16:32;;;;;;;;;;;8.70;99.90;;;;;;6308471;22;20328;-65
2022/10/31 07:18:57;;;;;;;;;;;8.70;99.90;;;;;;6309061;22;19915;-65
2022/10/31 07:21:23;;;;;;;;;;;8.70;99.90;;;;;;6307820;22;19996;-65
2022/10/31 07:23:49;;;;;;;;;;;8.70;99.90;;;;;;6309071;22;19915;-65
2022/10/31 07:26:15;;;;;;;;;;;8.70;99.90;;;;;;6309313;22;19919;-65
2022/10/31 07:28:40;;;;;;;;;;;8.80;99.90;;;;;;6309341;22;19918;-65
2022/10/31 07:31:09;;;;;;;;;;;8.70;99.90;;;;;;6308972;22;19921;-65
2022/10/31 07:33:38;;;;;;;;;;;8.80;99.90;;;;;;6305502;22;19982;-65
2022/10/31 07:36:04;;;;;;;;;;;8.80;99.90;;;;;;6309193;22;19965;-64
2022/10/31 07:38:30;;;;;;;;;;;8.80;99.90;;;;;;6309273;22;19915;-65
2022/10/31 07:40:55;;;;;;;;;;;8.90;99.90;;;;;;6309244;22;20347;-65
2022/10/31 07:43:26;;;;;;;;;;;9.00;99.90;;;;;;6308544;22;19919;-65
2022/10/31 07:45:55;;;;;;;;;;;9.00;99.90;;;;;;6309093;22;19950;-65
2022/10/31 07:48:20;;;;;;;;;;;9.10;99.90;;;;;;6309085;22;19925;-65
2022/10/31 07:50:49;;;;;;;;;;;9.20;99.90;;;;;;6309105;22;19921;-65
2022/10/31 07:53:15;;;;;;;;;;;9.30;99.90;;;;;;6309094;22;19953;-65
2022/10/31 07:55:42;;;;;;;;;;;9.30;99.90;;;;;;6308933;22;19925;-64
2022/10/31 07:58:11;;;;;;;;;;;9.50;99.90;;;;;;6309030;22;19918;-64
2022/10/31 08:00:37;;;;;;;;;;;9.60;99.90;;;;;;6308662;22;20335;-65
2022/10/31 08:03:04;;;;;;;;;;;9.60;99.90;;;;;;6308806;22;19918;-65
2022/10/31 08:05:30;;;;;;;;;;;9.80;99.90;;;;;;6308619;22;20332;-65
2022/10/31 08:07:55;;;;;;;;;;;10.00;99.90;;;;;;6308772;22;19919;-65
2022/10/31 08:10:21;;;;;;;;;;;10.10;99.90;;;;;;6306684;22;19947;-65
2022/10/31 08:12:54;;;;;;;;;;;10.30;99.90;;;;;;6308610;22;19993;-65
2022/10/31 08:15:20;;;;;;;;;;;10.50;99.90;;;;;;6281169;22;19998;-65
2022/10/31 08:17:46;;;;;;;;;;;10.70;99.90;;;;;;6308307;22;19919;-65
2022/10/31 08:20:11;;;;;;;;;;;10.70;99.90;;;;;;6308437;22;19936;-65
2022/10/31 08:22:37;;;;;;;;;;;10.90;99.90;;;;;;6308782;22;19918;-65
2022/10/31 08:25:06;;;;;;;;;;;11.00;99.90;;;;;;6308786;22;19922;-65
2022/10/31 08:27:33;;;;;;;;;;;11.00;99.90;;;;;;6308566;22;19919;-65
2022/10/31 08:29:59;;;;;;;;;;;11.00;99.90;;;;;;6280800;22;20382;-65
2022/10/31 08:32:31;;;;;;;;;;;11.10;99.90;;;;;;6302073;22;19969;-65
2022/10/31 08:34:57;;;;;;;;;;;11.10;99.90;;;;;;6308671;22;20324;-65
2022/10/31 08:37:31;;;;;;;;;;;11.10;99.90;;;;;;6308200;22;20383;-65
2022/10/31 08:40:00;;;;;;;;;;;11.20;99.90;;;;;;6308682;22;19919;-65
2022/10/31 08:42:25;;;;;;;;;;;11.30;99.90;;;;;;6280868;22;19998;-65
2022/10/31 08:44:51;;;;;;;;;;;11.40;99.90;;;;;;6308202;22;19915;-65
2022/10/31 08:47:27;;;;;;;;;;;11.50;99.90;;;;;;6308462;22;20002;-65
2022/10/31 08:49:53;;;;;;;;;;;12.00;99.90;;;;;;6308578;22;19914;-65
2022/10/31 08:52:22;;;;;;;;;;;12.80;99.90;;;;;;6308073;22;19918;-65
2022/10/31 08:54:48;;;;;;;;;;;13.60;99.90;;;;;;6307879;22;20335;-64
2022/10/31 08:57:13;;;;;;;;;;;14.40;99.90;;;;;;6280521;22;19922;-62
2022/10/31 08:59:39;;;;;;;;;;;15.10;99.90;;;;;;6280534;22;19923;-62
2022/10/31 09:02:06;;;;;;;;;;;15.70;99.90;;;;;;6308369;22;19931;-62
2022/10/31 09:04:35;;;;;;;;;;;15.80;99.90;;;;;;6307978;22;19915;-62
2022/10/31 09:07:01;;;;;;;;;;;15.50;99.90;;;;;;6308390;22;19929;-62
2022/10/31 09:09:26;;;;;;;;;;;15.30;99.90;;;;;;6308388;22;19951;-62
2022/10/31 09:11:52;;;;;;;;;;;15.00;99.90;;;;;;6308008;22;19919;-62
2022/10/31 09:14:18;;;;;;;;;;;14.70;99.90;;;;;;6307255;22;20008;-62
2022/10/31 09:16:44;;;;;;;;;;;14.70;99.90;;;;;;6280580;22;19919;-62
2022/10/31 09:19:09;;;;;;;;;;;14.70;99.90;;;;;;6281027;22;19915;-62
2022/10/31 09:21:38;;;;;;;;;;;14.80;99.90;;;;;;6307953;22;20020;-62
2022/10/31 09:24:12;;;;;;;;;;;14.70;99.90;;;;;;6308309;22;19915;-62
2022/10/31 09:26:45;;;;;;;;;;;14.60;99.90;;;;;;6307828;22;20231;-62
2022/10/31 09:29:11;;;;;;;;;;;14.50;99.90;;;;;;6308141;22;19925;-62
2022/10/31 09:31:36;;;;;;;;;;;14.40;99.90;;;;;;6307855;22;19938;-62
2022/10/31 09:34:03;;;;;;;;;;;14.30;99.90;;;;;;6307360;22;19915;-62
2022/10/31 09:36:34;;;;;;;;;;;14.20;99.90;;;;;;6307978;22;19980;-64
2022/10/31 09:38:59;;;;;;;;;;;14.20;99.90;;;;;;6307981;22;19940;-64
2022/10/31 09:42:04;;;;;;;;;;;14.10;99.90;;;;;;6307536;22;19915;-63
2022/10/31 09:44:44;;;;;;;;;;;14.10;99.90;;;;;;6153761;23;20253;-62
2022/10/31 09:47:28;;;;;;;;;;;14.00;99.90;;;;;;6153382;23;19936;-62
2022/10/31 09:49:56;;;;;;;;;;;14.00;99.90;;;;;;6153744;23;20106;-62
2022/10/31 09:52:40;;;;;;;;;;;14.00;99.90;;;;;;6153479;23;19916;-64
2022/10/31 09:55:09;;;;;;;;;;;14.00;99.90;;;;;;6153681;23;19917;-65
2022/10/31 09:57:37;;;;;;;;;;;14.10;99.90;;;;;;6153677;23;19979;-65
2022/10/31 10:00:09;;;;;;;;;;;14.10;99.90;;;;;;6153592;23;19993;-65
2022/10/31 10:02:47;;;;;;;;;;;14.10;99.90;;;;;;6153525;23;19917;-65
2022/10/31 10:05:22;;;;;;;;;;;14.10;99.90;;;;;;6153514;23;19916;-65
2022/10/31 10:08:05;;;;;;;;;;;14.10;99.90;;;;;;6154781;23;20077;-65
2022/10/31 10:10:53;;;;;;;;;;;14.20;99.90;;;;;;6155602;23;20368;-65
2022/10/31 10:13:46;;;;;;;;;;;14.20;99.90;;;;;;6155510;23;19916;-65
2022/10/31 10:16:18;;;;;;;;;;;14.30;99.90;;;;;;6294411;22;20349;-65
2022/10/31 10:18:50;;;;;;;;;;;14.30;99.90;;;;;;6309100;22;19919;-62
2022/10/31 10:21:25;;;;;;;;;;;14.50;99.90;;;;;;6309607;22;19914;-62
2022/10/31 10:24:03;;;;;;;;;;;14.50;99.90;;;;;;6309875;22;19920;-62
2022/10/31 10:26:34;;;;;;;;;;;14.50;99.90;;;;;;6309520;22;19925;-63
2022/10/31 10:29:18;;;;;;;;;;;14.50;99.90;;;;;;6309704;22;19915;-62
2022/10/31 10:31:45;;;;;;;;;;;14.60;99.90;;;;;;6281976;22;19994;-62
2022/10/31 10:34:17;;;;;;;;;;;14.60;99.90;;;;;;6309842;22;19921;-62
2022/10/31 10:36:44;;;;;;;;;;;14.70;99.90;;;;;;6309875;22;20008;-63
2022/10/31 10:39:14;;;;;;;;;;;14.70;99.90;;;;;;6309650;22;19919;-63
2022/10/31 10:41:43;;;;;;;;;;;14.70;99.90;;;;;;6309342;22;20304;-62
2022/10/31 10:44:11;;;;;;;;;;;14.70;99.90;;;;;;6309869;22;20069;-63
2022/10/31 10:49:47;;;;;;;;;;;14.70;99.90;;;;;;6309688;22;19965;-64
2022/10/31 10:52:30;;;;;;;;;;;14.70;99.90;;;;;;6309722;22;19945;-64
2022/10/31 10:54:59;;;;;;;;;;;14.70;99.90;;;;;;6309811;22;19915;-65
2022/10/31 10:57:43;;;;;;;;;;;14.80;99.90;;;;;;6309666;22;19921;-65
2022/10/31 11:00:36;;;;;;;;;;;14.80;99.90;;;;;;6309527;22;19937;-65
2022/10/31 11:03:02;;;;;;;;;;;14.90;99.90;;;;;;6302157;22;20324;-65
2022/10/31 11:05:47;;;;;;;;;;;14.90;99.90;;;;;;6309421;22;19925;-65
2022/10/31 11:08:23;;;;;;;;;;;15.00;99.90;;;;;;6309197;22;19997;-65
2022/10/31 11:11:00;;;;;;;;;;;15.10;99.90;;;;;;6309475;22;19914;-65
2022/10/31 11:13:27;;;;;;;;;;;15.10;99.90;;;;;;6309137;22;20332;-65
2022/10/31 11:15:56;;;;;;;;;;;15.10;99.90;;;;;;6309122;22;19938;-65
2022/10/31 11:18:24;;;;;;;;;;;15.10;99.90;;;;;;6308638;22;19919;-65
2022/10/31 11:20:54;;;;;;;;;;;15.10;99.90;;;;;;6282215;22;19953;-65
2022/10/31 11:23:21;;;;;;;;;;;15.20;99.90;;;;;;6309404;22;20284;-65
2022/10/31 11:25:52;;;;;;;;;;;15.20;99.90;;;;;;6309359;22;19914;-65
2022/10/31 11:28:17;;;;;;;;;;;15.20;99.90;;;;;;6309018;22;20359;-65
2022/10/31 11:30:46;;;;;;;;;;;15.20;99.90;;;;;;6309273;22;19914;-65
2022/10/31 11:33:24;;;;;;;;;;;15.20;99.90;;;;;;6308827;22;19915;-65
2022/10/31 11:35:50;;;;;;;;;;;15.20;99.90;;;;;;6308917;22;20331;-65
2022/10/31 11:38:20;;;;;;;;;;;15.20;99.90;;;;;;6309275;22;19922;-65
2022/10/31 11:40:53;;;;;;;;;;;15.20;99.90;;;;;;6309197;22;20289;-65
2022/10/31 11:43:18;;;;;;;;;;;15.20;99.90;;;;;;6309210;22;20247;-65
2022/10/31 11:45:44;;;;;;;;;;;15.30;99.90;;;;;;6309009;22;19915;-65
2022/10/31 11:48:18;;;;;;;;;;;15.30;99.90;;;;;;6308711;22;19919;-65
2022/10/31 11:50:47;;;;;;;;;;;15.40;99.90;;;;;;6308449;22;20009;-65
2022/10/31 11:53:19;;;;;;;;;;;15.40;99.90;;;;;;6308864;22;20044;-65
2022/10/31 11:55:45;;;;;;;;;;;15.40;99.90;;;;;;6281366;22;20349;-66
2022/10/31 11:58:24;;;;;;;;;;;15.50;99.90;;;;;;6308369;22;19949;-65
2022/10/31 12:00:51;;;;;;;;;;;15.50;99.90;;;;;;6309052;22;19915;-65
2022/10/31 12:03:17;;;;;;;;;;;15.50;99.90;;;;;;6308889;22;19921;-65
2022/10/31 12:05:47;;;;;;;;;;;15.60;99.90;;;;;;6308796;22;19993;-65
2022/10/31 12:08:13;;;;;;;;;;;15.60;99.90;;;;;;6308613;22;19919;-65
2022/10/31 12:10:51;;;;;;;;;;;15.60;99.90;;;;;;6308588;22;19915;-65
2022/10/31 12:13:37;;;;;;;;;;;15.60;99.90;;;;;;6309000;22;20248;-65
2022/10/31 12:16:20;;;;;;;;;;;15.60;99.90;;;;;;6282280;22;19921;-65
2022/10/31 12:18:54;;;;;;;;;;;15.90;99.90;;;;;;6308169;22;19919;-65
2022/10/31 12:21:25;;;;;;;;;;;15.80;99.90;;;;;;6308852;22;19915;-65
2022/10/31 12:24:17;;;;;;;;;;;15.70;99.90;;;;;;6308845;22;19986;-66
2022/10/31 12:26:52;;;;;;;;;;;15.80;99.90;;;;;;6308736;22;19926;-65
2022/10/31 12:29:40;;;;;;;;;;;15.70;99.90;;;;;;6308445;22;19919;-65
2022/10/31 12:32:05;;;;;;;;;;;15.70;99.90;;;;;;6308424;22;19946;-65
2022/10/31 12:34:42;;;;;;;;;;;15.80;99.90;;;;;;6307186;22;20216;-65
2022/10/31 12:37:10;;;;;;;;;;;15.80;99.90;;;;;;6308676;22;19915;-66
2022/10/31 12:39:43;;;;;;;;;;;15.80;99.90;;;;;;6308745;22;19914;-65
2022/10/31 12:42:08;;;;;;;;;;;15.90;99.90;;;;;;6308623;22;19915;-65
2022/10/31 12:44:41;;;;;;;;;;;16.10;99.90;;;;;;6308311;22;19922;-65
2022/10/31 12:47:29;;;;;;;;;;;16.20;99.90;;;;;;6308449;22;19973;-66
2022/10/31 12:50:20;;;;;;;;;;;16.30;99.90;;;;;;6308572;22;19915;-66
2022/10/31 12:53:25;;;;;;;;;;;16.40;99.90;;;;;;6302616;22;19976;-66
2022/10/31 12:56:10;;;;;;;;;;;16.40;99.90;;;;;;6229445;22;19954;-66
2022/10/31 12:58:49;;;;;;;;;;;16.50;99.90;;;;;;6308355;22;20279;-66
2022/10/31 13:01:25;;;;;;;;;;;16.50;99.90;;;;;;6308146;22;20224;-66
2022/10/31 13:03:50;;;;;;;;;;;16.60;99.90;;;;;;6308476;22;19926;-66
2022/10/31 13:06:22;;;;;;;;;;;16.60;99.90;;;;;;6254396;22;19946;-66
2022/10/31 13:08:54;;;;;;;;;;;16.70;99.90;;;;;;6308517;22;19942;-66
2022/10/31 13:11:21;;;;;;;;;;;16.80;99.90;;;;;;6308372;22;19915;-66
2022/10/31 13:13:49;;;;;;;;;;;16.80;99.90;;;;;;6308133;22;19915;-65
2022/10/31 13:16:41;;;;;;;;;;;16.80;99.90;;;;;;6280585;22;20311;-65
2022/10/31 13:19:23;;;;;;;;;;;16.70;99.90;;;;;;6295828;22;20251;-65
2022/10/31 13:22:09;;;;;;;;;;;16.70;99.90;;;;;;6308236;22;19990;-66
2022/10/31 13:24:53;;;;;;;;;;;16.60;99.90;;;;;;6306586;22;19915;-66
2022/10/31 13:27:41;;;;;;;;;;;16.60;99.90;;;;;;6308351;22;19918;-66
2022/10/31 13:30:10;;;;;;;;;;;16.50;99.90;;;;;;6260470;22;19915;-66
2022/10/31 13:32:40;;;;;;;;;;;16.60;99.90;;;;;;6308053;22;20352;-66
2022/10/31 13:35:13;;;;;;;;;;;16.50;99.90;;;;;;6308088;22;19921;-66
2022/10/31 13:37:46;;;;;;;;;;;16.50;99.90;;;;;;6308443;22;19915;-65
2022/10/31 13:40:18;;;;;;;;;;;16.50;99.90;;;;;;6307955;22;19921;-65
2022/10/31 13:42:44;;;;;;;;;;;16.50;99.90;;;;;;6309902;22;20230;-65
2022/10/31 13:45:12;;;;;;;;;;;16.50;99.90;;;;;;6310316;22;19915;-65
2022/10/31 13:47:44;;;;;;;;;;;16.50;99.90;;;;;;6310304;22;19919;-66
2022/10/31 13:50:27;;;;;;;;;;;16.40;99.90;;;;;;6310374;22;19922;-66
2022/10/31 13:53:08;;;;;;;;;;;16.40;99.90;;;;;;6307447;22;19919;-66
2022/10/31 13:55:42;;;;;;;;;;;16.30;99.90;;;;;;6282728;22;20354;-66
2022/10/31 13:58:20;;;;;;;;;;;16.20;99.90;;;;;;6309215;22;19953;-66
2022/10/31 14:00:57;;;;;;;;;;;16.30;99.90;;;;;;6309805;22;19921;-66
2022/10/31 14:03:25;;;;;;;;;;;16.20;99.90;;;;;;6309888;22;19950;-66
2022/10/31 14:05:54;;;;;;;;;;;16.20;99.90;;;;;;6282102;22;19923;-66
2022/10/31 14:08:24;;;;;;;;;;;16.20;99.90;;;;;;6309838;22;19922;-66
2022/10/31 14:10:51;;;;;;;;;;;16.10;99.90;;;;;;6309720;22;19944;-66
2022/10/31 14:13:37;;;;;;;;;;;16.10;99.90;;;;;;6282358;22;20358;-64
2022/10/31 14:16:15;;;;;;;;;;;16.10;99.90;;;;;;6310209;22;19945;-66
2022/10/31 14:18:50;;;;;;;;;;;16.10;99.90;;;;;;6309585;22;20381;-66
2022/10/31 14:21:22;;;;;;;;;;;16.10;99.90;;;;;;6309640;22;19922;-66
2022/10/31 14:23:48;;;;;;;;;;;16.10;99.90;;;;;;6309753;22;19915;-66
2022/10/31 14:26:28;;;;;;;;;;;16.10;99.90;;;;;;6309426;22;20324;-66
2022/10/31 14:29:14;;;;;;;;;;;16.10;99.90;;;;;;6309997;22;20239;-66
2022/10/31 14:32:00;;;;;;;;;;;16.00;99.90;;;;;;6282425;22;20397;-66
2022/10/31 14:34:30;;;;;;;;;;;16.00;99.90;;;;;;6308451;22;20393;-66
2022/10/31 14:36:59;;;;;;;;;;;16.00;99.90;;;;;;6282146;22;19915;-66
2022/10/31 14:39:30;;;;;;;;;;;16.00;99.90;;;;;;6309852;22;19953;-66
2022/10/31 14:42:19;;;;;;;;;;;15.90;99.90;;;;;;6309927;22;19968;-66
2022/10/31 14:44:53;;;;;;;;;;;16.00;99.90;;;;;;6282116;22;19915;-64
2022/10/31 14:47:31;;;;;;;;;;;15.90;99.90;;;;;;6309347;22;20328;-64